sensor_id;sensor_type;location;lat;lon;timestamp;temperature;humidity
16118;DHT22;8163;50.118;5.342;2022-08-19T00:02:12;19.10;91.40
16118;DHT22;8163;50.118;5.342;2022-08-19T00:04:41;19.10;92.00
16118;DHT22;8163;50.118;5.342;2022-08-19T00:07:09;19.10;92.60
16118;DHT22;8163;50.118;5.342;2022-08-19T00:09:37;19.10;93.10
16118;DHT22;8163;50.118;5.342;2022-08-19T00:12:07;19.10;93.50
16118;DHT22;8163;50.118;5.342;2022-08-19T00:14:36;19.10;93.80
16118;DHT22;8163;50.118;5.342;2022-08-19T00:17:07;19.10;94.40
16118;DHT22;8163;50.118;5.342;2022-08-19T00:19:37;19.00;94.80
16118;DHT22;8163;50.118;5.342;2022-08-19T00:22:06;19.00;95.50
16118;DHT22;8163;50.118;5.342;2022-08-19T00:24:34;19.00;96.10
16118;DHT22;8163;50.118;5.342;2022-08-19T00:27:07;18.90;96.60
16118;DHT22;8163;50.118;5.342;2022-08-19T00:29:34;19.00;97.10
16118;DHT22;8163;50.118;5.342;2022-08-19T00:32:03;18.90;97.60
16118;DHT22;8163;50.118;5.342;2022-08-19T00:37:07;18.90;98.10
16118;DHT22;8163;50.118;5.342;2022-08-19T00:39:37;18.90;98.40
16118;DHT22;8163;50.118;5.342;2022-08-19T00:42:05;18.90;98.40
16118;DHT22;8163;50.118;5.342;2022-08-19T00:44:33;18.90;98.60
16118;DHT22;8163;50.118;5.342;2022-08-19T00:47:01;18.80;99.00
16118;DHT22;8163;50.118;5.342;2022-08-19T00:49:32;18.80;99.50
16118;DHT22;8163;50.118;5.342;2022-08-19T00:52:04;18.70;99.90
16118;DHT22;8163;50.118;5.342;2022-08-19T00:54:36;18.70;99.90
16118;DHT22;8163;50.118;5.342;2022-08-19T00:57:07;18.70;99.90
16118;DHT22;8163;50.118;5.342;2022-08-19T00:59:39;18.70;99.90
16118;DHT22;8163;50.118;5.342;2022-08-19T01:02:07;18.60;99.90
16118;DHT22;8163;50.118;5.342;2022-08-19T01:04:34;18.60;99.90
16118;DHT22;8163;50.118;5.342;2022-08-19T01:07:02;18.70;99.90
16118;DHT22;8163;50.118;5.342;2022-08-19T01:09:29;18.60;99.90
16118;DHT22;8163;50.118;5.342;2022-08-19T01:11:58;18.60;99.90
16118;DHT22;8163;50.118;5.342;2022-08-19T01:14:26;18.60;99.90
16118;DHT22;8163;50.118;5.342;2022-08-19T01:16:55;18.50;99.90
16118;DHT22;8163;50.118;5.342;2022-08-19T01:19:30;18.50;99.90
16118;DHT22;8163;50.118;5.342;2022-08-19T01:22:03;18.50;99.90
16118;DHT22;8163;50.118;5.342;2022-08-19T01:24:34;18.40;99.90
16118;DHT22;8163;50.118;5.342;2022-08-19T01:27:04;18.40;99.90
16118;DHT22;8163;50.118;5.342;2022-08-19T01:29:32;18.40;99.90
16118;DHT22;8163;50.118;5.342;2022-08-19T01:32:01;18.50;99.90
16118;DHT22;8163;50.118;5.342;2022-08-19T01:34:28;18.40;99.90
16118;DHT22;8163;50.118;5.342;2022-08-19T01:36:57;18.40;99.90
16118;DHT22;8163;50.118;5.342;2022-08-19T01:39:26;18.40;99.90
16118;DHT22;8163;50.118;5.342;2022-08-19T01:41:55;18.40;99.90
16118;DHT22;8163;50.118;5.342;2022-08-19T01:44:22;18.40;99.90
16118;DHT22;8163;50.118;5.342;2022-08-19T01:46:52;18.30;99.90
16118;DHT22;8163;50.118;5.342;2022-08-19T01:49:21;18.30;99.90
16118;DHT22;8163;50.118;5.342;2022-08-19T01:51:49;18.30;99.90
16118;DHT22;8163;50.118;5.342;2022-08-19T01:54:19;18.30;99.90
16118;DHT22;8163;50.118;5.342;2022-08-19T01:56:47;18.20;99.90
16118;DHT22;8163;50.118;5.342;2022-08-19T01:59:19;18.30;99.90
16118;DHT22;8163;50.118;5.342;2022-08-19T02:01:47;18.20;99.90
16118;DHT22;8163;50.118;5.342;2022-08-19T02:04:16;18.20;99.90
16118;DHT22;8163;50.118;5.342;2022-08-19T02:06:44;18.20;99.90
16118;DHT22;8163;50.118;5.342;2022-08-19T02:09:13;18.10;99.90
16118;DHT22;8163;50.118;5.342;2022-08-19T02:11:42;18.10;99.90
16118;DHT22;8163;50.118;5.342;2022-08-19T02:14:10;18.10;99.90
16118;DHT22;8163;50.118;5.342;2022-08-19T02:16:38;18.10;99.90
16118;DHT22;8163;50.118;5.342;2022-08-19T02:19:06;18.00;99.90
16118;DHT22;8163;50.118;5.342;2022-08-19T02:21:34;17.90;99.90
16118;DHT22;8163;50.118;5.342;2022-08-19T02:24:02;17.90;99.90
16118;DHT22;8163;50.118;5.342;2022-08-19T02:26:29;17.90;99.90
16118;DHT22;8163;50.118;5.342;2022-08-19T02:28:57;17.80;99.90
16118;DHT22;8163;50.118;5.342;2022-08-19T02:31:25;17.70;99.90
16118;DHT22;8163;50.118;5.342;2022-08-19T02:33:55;17.70;99.90
16118;DHT22;8163;50.118;5.342;2022-08-19T02:36:26;17.80;99.90
16118;DHT22;8163;50.118;5.342;2022-08-19T02:38:54;17.80;99.90
16118;DHT22;8163;50.118;5.342;2022-08-19T02:41:22;17.80;99.90
16118;DHT22;8163;50.118;5.342;2022-08-19T02:43:50;17.80;99.90
16118;DHT22;8163;50.118;5.342;2022-08-19T02:46:19;17.80;99.90
16118;DHT22;8163;50.118;5.342;2022-08-19T02:48:48;17.80;99.90
16118;DHT22;8163;50.118;5.342;2022-08-19T02:51:22;17.80;99.90
16118;DHT22;8163;50.118;5.342;2022-08-19T02:53:50;17.80;99.90
16118;DHT22;8163;50.118;5.342;2022-08-19T02:56:18;17.80;99.90
16118;DHT22;8163;50.118;5.342;2022-08-19T02:58:46;17.70;99.90
16118;DHT22;8163;50.118;5.342;2022-08-19T03:01:21;17.70;99.90
16118;DHT22;8163;50.118;5.342;2022-08-19T03:03:48;17.70;99.90
16118;DHT22;8163;50.118;5.342;2022-08-19T03:06:16;17.70;99.90
16118;DHT22;8163;50.118;5.342;2022-08-19T03:08:46;17.70;99.90
16118;DHT22;8163;50.118;5.342;2022-08-19T03:11:16;17.60;99.90
16118;DHT22;8163;50.118;5.342;2022-08-19T03:13:44;17.70;99.90
16118;DHT22;8163;50.118;5.342;2022-08-19T03:16:15;17.70;99.90
16118;DHT22;8163;50.118;5.342;2022-08-19T03:18:43;17.60;99.90
16118;DHT22;8163;50.118;5.342;2022-08-19T03:21:17;17.60;99.90
16118;DHT22;8163;50.118;5.342;2022-08-19T03:23:47;17.50;99.90
16118;DHT22;8163;50.118;5.342;2022-08-19T03:26:14;17.50;99.90
16118;DHT22;8163;50.118;5.342;2022-08-19T03:28:44;17.50;99.90
16118;DHT22;8163;50.118;5.342;2022-08-19T03:31:17;17.50;99.90
16118;DHT22;8163;50.118;5.342;2022-08-19T03:33:45;17.50;99.90
16118;DHT22;8163;50.118;5.342;2022-08-19T03:36:14;17.50;99.90
16118;DHT22;8163;50.118;5.342;2022-08-19T03:38:47;17.40;99.90
16118;DHT22;8163;50.118;5.342;2022-08-19T03:41:18;17.40;99.90
16118;DHT22;8163;50.118;5.342;2022-08-19T03:43:46;17.40;99.90
16118;DHT22;8163;50.118;5.342;2022-08-19T03:46:16;17.40;99.90
16118;DHT22;8163;50.118;5.342;2022-08-19T03:48:47;17.40;99.90
16118;DHT22;8163;50.118;5.342;2022-08-19T03:51:19;17.40;99.90
16118;DHT22;8163;50.118;5.342;2022-08-19T03:53:49;17.40;99.90
16118;DHT22;8163;50.118;5.342;2022-08-19T03:56:17;17.40;99.90
16118;DHT22;8163;50.118;5.342;2022-08-19T03:58:45;17.40;99.90
16118;DHT22;8163;50.118;5.342;2022-08-19T04:01:15;17.40;99.90
16118;DHT22;8163;50.118;5.342;2022-08-19T04:03:44;17.50;99.90
16118;DHT22;8163;50.118;5.342;2022-08-19T04:06:14;17.50;99.90
16118;DHT22;8163;50.118;5.342;2022-08-19T04:08:44;17.50;99.90
16118;DHT22;8163;50.118;5.342;2022-08-19T04:11:17;17.60;99.90
16118;DHT22;8163;50.118;5.342;2022-08-19T04:13:49;17.60;99.90
16118;DHT22;8163;50.118;5.342;2022-08-19T04:16:17;17.50;99.90
16118;DHT22;8163;50.118;5.342;2022-08-19T04:18:45;17.60;99.90
16118;DHT22;8163;50.118;5.342;2022-08-19T04:21:16;17.60;99.90
16118;DHT22;8163;50.118;5.342;2022-08-19T04:23:45;17.60;99.90
16118;DHT22;8163;50.118;5.342;2022-08-19T04:26:16;17.60;99.90
16118;DHT22;8163;50.118;5.342;2022-08-19T04:28:44;17.70;99.90
16118;DHT22;8163;50.118;5.342;2022-08-19T04:31:14;17.60;99.90
16118;DHT22;8163;50.118;5.342;2022-08-19T04:33:41;17.70;99.90
16118;DHT22;8163;50.118;5.342;2022-08-19T04:36:16;17.70;99.90
16118;DHT22;8163;50.118;5.342;2022-08-19T04:38:46;17.70;99.90
16118;DHT22;8163;50.118;5.342;2022-08-19T04:41:16;17.70;99.90
16118;DHT22;8163;50.118;5.342;2022-08-19T04:44:01;17.70;99.90
16118;DHT22;8163;50.118;5.342;2022-08-19T04:46:31;17.80;99.90
16118;DHT22;8163;50.118;5.342;2022-08-19T04:48:59;17.80;99.90
16118;DHT22;8163;50.118;5.342;2022-08-19T04:51:27;17.80;99.90
16118;DHT22;8163;50.118;5.342;2022-08-19T04:53:56;17.70;99.90
16118;DHT22;8163;50.118;5.342;2022-08-19T04:56:26;17.70;99.90
16118;DHT22;8163;50.118;5.342;2022-08-19T04:58:55;17.80;99.90
16118;DHT22;8163;50.118;5.342;2022-08-19T05:01:24;17.80;99.90
16118;DHT22;8163;50.118;5.342;2022-08-19T05:03:52;17.80;99.90
16118;DHT22;8163;50.118;5.342;2022-08-19T05:06:21;17.80;99.90
16118;DHT22;8163;50.118;5.342;2022-08-19T05:08:49;17.80;99.90
16118;DHT22;8163;50.118;5.342;2022-08-19T05:11:20;17.80;99.90
16118;DHT22;8163;50.118;5.342;2022-08-19T05:13:49;17.70;99.90
16118;DHT22;8163;50.118;5.342;2022-08-19T05:16:19;17.80;99.90
16118;DHT22;8163;50.118;5.342;2022-08-19T05:18:48;17.80;99.90
16118;DHT22;8163;50.118;5.342;2022-08-19T05:21:33;17.70;99.90
16118;DHT22;8163;50.118;5.342;2022-08-19T05:24:20;17.80;99.90
16118;DHT22;8163;50.118;5.342;2022-08-19T05:26:49;17.80;99.90
16118;DHT22;8163;50.118;5.342;2022-08-19T05:29:20;17.80;99.90
16118;DHT22;8163;50.118;5.342;2022-08-19T05:31:49;17.80;99.90
16118;DHT22;8163;50.118;5.342;2022-08-19T05:34:17;17.90;99.90
16118;DHT22;8163;50.118;5.342;2022-08-19T05:36:46;17.90;99.90
16118;DHT22;8163;50.118;5.342;2022-08-19T05:39:16;17.90;99.90
16118;DHT22;8163;50.118;5.342;2022-08-19T05:41:48;17.90;99.90
16118;DHT22;8163;50.118;5.342;2022-08-19T05:44:20;18.00;99.90
16118;DHT22;8163;50.118;5.342;2022-08-19T05:46:49;18.00;99.90
16118;DHT22;8163;50.118;5.342;2022-08-19T05:49:22;18.00;99.90
16118;DHT22;8163;50.118;5.342;2022-08-19T05:51:51;18.10;99.90
16118;DHT22;8163;50.118;5.342;2022-08-19T05:54:19;18.10;99.90
16118;DHT22;8163;50.118;5.342;2022-08-19T05:56:46;18.20;99.90
16118;DHT22;8163;50.118;5.342;2022-08-19T05:59:17;18.20;99.90
16118;DHT22;8163;50.118;5.342;2022-08-19T06:01:51;18.30;99.90
16118;DHT22;8163;50.118;5.342;2022-08-19T06:04:22;18.30;99.90
16118;DHT22;8163;50.118;5.342;2022-08-19T06:06:52;18.40;99.90
16118;DHT22;8163;50.118;5.342;2022-08-19T06:09:20;18.50;99.90
16118;DHT22;8163;50.118;5.342;2022-08-19T06:11:50;18.50;99.90
16118;DHT22;8163;50.118;5.342;2022-08-19T06:14:21;18.60;99.90
16118;DHT22;8163;50.118;5.342;2022-08-19T06:16:50;18.70;99.90
16118;DHT22;8163;50.118;5.342;2022-08-19T06:19:20;18.80;99.90
16118;DHT22;8163;50.118;5.342;2022-08-19T06:21:51;18.90;99.90
16118;DHT22;8163;50.118;5.342;2022-08-19T06:24:21;18.90;99.90
16118;DHT22;8163;50.118;5.342;2022-08-19T06:26:52;18.90;99.90
16118;DHT22;8163;50.118;5.342;2022-08-19T06:29:23;18.90;99.90
16118;DHT22;8163;50.118;5.342;2022-08-19T06:31:56;18.90;99.90
16118;DHT22;8163;50.118;5.342;2022-08-19T06:34:26;18.80;99.90
16118;DHT22;8163;50.118;5.342;2022-08-19T06:36:55;18.90;99.90
16118;DHT22;8163;50.118;5.342;2022-08-19T06:39:26;18.90;99.90
16118;DHT22;8163;50.118;5.342;2022-08-19T06:41:55;18.90;99.90
16118;DHT22;8163;50.118;5.342;2022-08-19T06:44:26;18.90;99.90
16118;DHT22;8163;50.118;5.342;2022-08-19T06:46:56;18.90;99.90
16118;DHT22;8163;50.118;5.342;2022-08-19T06:49:24;18.90;99.90
16118;DHT22;8163;50.118;5.342;2022-08-19T06:51:55;18.90;99.90
16118;DHT22;8163;50.118;5.342;2022-08-19T06:54:23;18.80;99.90
16118;DHT22;8163;50.118;5.342;2022-08-19T06:56:50;18.80;99.90
16118;DHT22;8163;50.118;5.342;2022-08-19T06:59:19;18.80;99.90
16118;DHT22;8163;50.118;5.342;2022-08-19T07:01:49;18.80;99.90
16118;DHT22;8163;50.118;5.342;2022-08-19T07:04:22;18.80;99.90
16118;DHT22;8163;50.118;5.342;2022-08-19T07:06:57;18.80;99.90
16118;DHT22;8163;50.118;5.342;2022-08-19T07:09:26;18.70;99.90
16118;DHT22;8163;50.118;5.342;2022-08-19T07:11:55;18.70;99.90
16118;DHT22;8163;50.118;5.342;2022-08-19T07:14:26;18.70;99.90
16118;DHT22;8163;50.118;5.342;2022-08-19T07:16:55;18.70;99.90
16118;DHT22;8163;50.118;5.342;2022-08-19T07:19:25;18.80;99.90
16118;DHT22;8163;50.118;5.342;2022-08-19T07:21:54;18.70;99.90
16118;DHT22;8163;50.118;5.342;2022-08-19T07:24:24;18.80;99.90
16118;DHT22;8163;50.118;5.342;2022-08-19T07:26:53;18.80;99.90
16118;DHT22;8163;50.118;5.342;2022-08-19T07:29:23;18.90;99.90
16118;DHT22;8163;50.118;5.342;2022-08-19T07:31:51;18.90;99.90
16118;DHT22;8163;50.118;5.342;2022-08-19T07:34:25;18.90;99.90
16118;DHT22;8163;50.118;5.342;2022-08-19T07:36:53;18.80;99.90
16118;DHT22;8163;50.118;5.342;2022-08-19T07:39:23;18.80;99.90
16118;DHT22;8163;50.118;5.342;2022-08-19T07:41:52;18.70;99.90
16118;DHT22;8163;50.118;5.342;2022-08-19T07:44:20;18.70;99.90
16118;DHT22;8163;50.118;5.342;2022-08-19T07:46:50;18.60;99.90
16118;DHT22;8163;50.118;5.342;2022-08-19T07:49:19;18.60;99.90
16118;DHT22;8163;50.118;5.342;2022-08-19T07:51:53;18.60;99.90
16118;DHT22;8163;50.118;5.342;2022-08-19T07:54:24;18.70;99.90
16118;DHT22;8163;50.118;5.342;2022-08-19T07:56:53;18.70;99.90
16118;DHT22;8163;50.118;5.342;2022-08-19T07:59:22;18.70;99.90
16118;DHT22;8163;50.118;5.342;2022-08-19T08:01:51;18.70;99.90
16118;DHT22;8163;50.118;5.342;2022-08-19T08:04:19;18.70;99.90
16118;DHT22;8163;50.118;5.342;2022-08-19T08:07:07;18.70;99.90
16118;DHT22;8163;50.118;5.342;2022-08-19T08:09:52;18.80;99.90
16118;DHT22;8163;50.118;5.342;2022-08-19T08:12:24;18.80;99.90
16118;DHT22;8163;50.118;5.342;2022-08-19T08:14:55;18.80;99.90
16118;DHT22;8163;50.118;5.342;2022-08-19T08:17:25;18.80;99.90
16118;DHT22;8163;50.118;5.342;2022-08-19T08:19:54;18.80;99.90
16118;DHT22;8163;50.118;5.342;2022-08-19T08:22:26;18.80;99.90
16118;DHT22;8163;50.118;5.342;2022-08-19T08:25:14;18.90;99.90
16118;DHT22;8163;50.118;5.342;2022-08-19T08:27:44;19.10;99.90
16118;DHT22;8163;50.118;5.342;2022-08-19T08:30:14;19.20;99.90
16118;DHT22;8163;50.118;5.342;2022-08-19T08:32:42;19.30;99.90
16118;DHT22;8163;50.118;5.342;2022-08-19T08:35:11;19.40;99.90
16118;DHT22;8163;50.118;5.342;2022-08-19T08:37:43;19.40;99.90
16118;DHT22;8163;50.118;5.342;2022-08-19T08:40:26;19.40;99.90
16118;DHT22;8163;50.118;5.342;2022-08-19T08:42:59;19.50;99.90
16118;DHT22;8163;50.118;5.342;2022-08-19T08:45:31;19.70;99.90
16118;DHT22;8163;50.118;5.342;2022-08-19T08:48:16;19.90;99.90
16118;DHT22;8163;50.118;5.342;2022-08-19T08:50:46;20.10;99.90
16118;DHT22;8163;50.118;5.342;2022-08-19T08:53:23;20.20;99.90
16118;DHT22;8163;50.118;5.342;2022-08-19T08:55:51;20.40;99.90
16118;DHT22;8163;50.118;5.342;2022-08-19T08:58:31;20.70;99.90
16118;DHT22;8163;50.118;5.342;2022-08-19T09:01:00;21.00;99.90
16118;DHT22;8163;50.118;5.342;2022-08-19T09:03:29;21.50;99.90
16118;DHT22;8163;50.118;5.342;2022-08-19T09:06:00;22.00;99.90
16118;DHT22;8163;50.118;5.342;2022-08-19T09:08:38;22.50;99.90
16118;DHT22;8163;50.118;5.342;2022-08-19T09:11:08;22.90;99.90
16118;DHT22;8163;50.118;5.342;2022-08-19T09:13:44;23.50;99.90
16118;DHT22;8163;50.118;5.342;2022-08-19T09:16:20;23.40;99.90
16118;DHT22;8163;50.118;5.342;2022-08-19T09:18:55;24.00;99.90
16118;DHT22;8163;50.118;5.342;2022-08-19T09:21:25;24.20;99.90
16118;DHT22;8163;50.118;5.342;2022-08-19T09:23:56;24.00;99.90
16118;DHT22;8163;50.118;5.342;2022-08-19T09:26:25;23.70;99.90
16118;DHT22;8163;50.118;5.342;2022-08-19T09:28:53;23.60;99.90
16118;DHT22;8163;50.118;5.342;2022-08-19T09:31:24;24.10;99.90
16118;DHT22;8163;50.118;5.342;2022-08-19T09:33:53;24.60;99.90
16118;DHT22;8163;50.118;5.342;2022-08-19T09:36:27;24.40;99.60
16118;DHT22;8163;50.118;5.342;2022-08-19T09:39:00;24.10;97.60
16118;DHT22;8163;50.118;5.342;2022-08-19T09:41:29;24.90;97.50
16118;DHT22;8163;50.118;5.342;2022-08-19T09:43:58;24.90;95.50
16118;DHT22;8163;50.118;5.342;2022-08-19T09:46:29;24.50;93.10
16118;DHT22;8163;50.118;5.342;2022-08-19T09:48:58;24.10;93.20
16118;DHT22;8163;50.118;5.342;2022-08-19T09:51:30;24.60;94.50
16118;DHT22;8163;50.118;5.342;2022-08-19T09:54:02;25.30;94.20
16118;DHT22;8163;50.118;5.342;2022-08-19T09:56:30;25.70;92.20
16118;DHT22;8163;50.118;5.342;2022-08-19T09:58:59;25.70;91.20
16118;DHT22;8163;50.118;5.342;2022-08-19T10:01:29;25.70;90.30
16118;DHT22;8163;50.118;5.342;2022-08-19T10:04:04;25.70;88.90
16118;DHT22;8163;50.118;5.342;2022-08-19T10:06:35;25.70;87.50
16118;DHT22;8163;50.118;5.342;2022-08-19T10:09:06;25.50;86.40
16118;DHT22;8163;50.118;5.342;2022-08-19T10:11:36;25.50;85.50
16118;DHT22;8163;50.118;5.342;2022-08-19T10:14:06;25.40;85.10
16118;DHT22;8163;50.118;5.342;2022-08-19T10:16:36;25.40;84.50
16118;DHT22;8163;50.118;5.342;2022-08-19T10:19:08;25.40;83.70
16118;DHT22;8163;50.118;5.342;2022-08-19T10:21:36;25.10;83.40
16118;DHT22;8163;50.118;5.342;2022-08-19T10:24:06;24.80;83.30
16118;DHT22;8163;50.118;5.342;2022-08-19T10:26:37;24.90;83.60
16118;DHT22;8163;50.118;5.342;2022-08-19T10:29:09;24.80;83.10
16118;DHT22;8163;50.118;5.342;2022-08-19T10:31:41;24.70;82.90
16118;DHT22;8163;50.118;5.342;2022-08-19T10:34:09;24.70;83.10
16118;DHT22;8163;50.118;5.342;2022-08-19T10:36:37;24.70;83.00
16118;DHT22;8163;50.118;5.342;2022-08-19T10:39:08;24.60;82.80
16118;DHT22;8163;50.118;5.342;2022-08-19T10:41:39;24.70;83.00
16118;DHT22;8163;50.118;5.342;2022-08-19T10:44:11;24.80;82.80
16118;DHT22;8163;50.118;5.342;2022-08-19T10:46:41;24.80;82.60
16118;DHT22;8163;50.118;5.342;2022-08-19T10:49:11;24.80;82.50
16118;DHT22;8163;50.118;5.342;2022-08-19T10:51:41;24.80;82.70
16118;DHT22;8163;50.118;5.342;2022-08-19T10:54:29;24.80;82.40
16118;DHT22;8163;50.118;5.342;2022-08-19T10:57:11;24.90;82.80
16118;DHT22;8163;50.118;5.342;2022-08-19T10:59:39;25.00;82.60
16118;DHT22;8163;50.118;5.342;2022-08-19T11:38:27;27.00;82.10
16118;DHT22;8163;50.118;5.342;2022-08-19T11:40:59;27.10;81.60
16118;DHT22;8163;50.118;5.342;2022-08-19T11:43:27;27.20;80.20
16118;DHT22;8163;50.118;5.342;2022-08-19T11:45:54;27.50;80.10
16118;DHT22;8163;50.118;5.342;2022-08-19T11:48:22;27.40;78.70
16118;DHT22;8163;50.118;5.342;2022-08-19T11:50:49;27.20;77.80
16118;DHT22;8163;50.118;5.342;2022-08-19T11:53:16;27.40;77.60
16118;DHT22;8163;50.118;5.342;2022-08-19T11:55:45;28.00;77.40
16118;DHT22;8163;50.118;5.342;2022-08-19T11:58:14;28.40;77.10
16118;DHT22;8163;50.118;5.342;2022-08-19T12:00:42;28.40;76.00
16118;DHT22;8163;50.118;5.342;2022-08-19T12:03:11;28.50;75.10
16118;DHT22;8163;50.118;5.342;2022-08-19T12:05:38;28.40;74.60
16118;DHT22;8163;50.118;5.342;2022-08-19T12:08:06;28.90;74.30
16118;DHT22;8163;50.118;5.342;2022-08-19T12:10:34;29.20;73.90
16118;DHT22;8163;50.118;5.342;2022-08-19T12:13:03;29.00;72.60
16118;DHT22;8163;50.118;5.342;2022-08-19T12:15:30;29.40;72.10
16118;DHT22;8163;50.118;5.342;2022-08-19T12:17:57;29.70;72.10
16118;DHT22;8163;50.118;5.342;2022-08-19T12:20:24;30.00;71.20
16118;DHT22;8163;50.118;5.342;2022-08-19T12:22:51;30.70;71.00
16118;DHT22;8163;50.118;5.342;2022-08-19T12:25:19;31.10;70.20
16118;DHT22;8163;50.118;5.342;2022-08-19T12:27:47;31.30;68.70
16118;DHT22;8163;50.118;5.342;2022-08-19T12:30:16;31.20;67.60
16118;DHT22;8163;50.118;5.342;2022-08-19T12:32:43;30.60;67.00
16118;DHT22;8163;50.118;5.342;2022-08-19T12:35:10;30.20;66.60
16118;DHT22;8163;50.118;5.342;2022-08-19T12:37:38;30.60;66.90
16118;DHT22;8163;50.118;5.342;2022-08-19T12:40:08;30.70;66.80
16118;DHT22;8163;50.118;5.342;2022-08-19T12:42:37;30.80;65.80
16118;DHT22;8163;50.118;5.342;2022-08-19T12:45:09;30.70;65.70
16118;DHT22;8163;50.118;5.342;2022-08-19T12:47:38;30.50;64.80
16118;DHT22;8163;50.118;5.342;2022-08-19T12:50:07;30.30;65.00
16118;DHT22;8163;50.118;5.342;2022-08-19T12:52:35;29.80;64.60
16118;DHT22;8163;50.118;5.342;2022-08-19T12:55:04;29.20;64.60
16118;DHT22;8163;50.118;5.342;2022-08-19T12:57:32;28.80;65.00
16118;DHT22;8163;50.118;5.342;2022-08-19T13:00:03;28.50;65.50
16118;DHT22;8163;50.118;5.342;2022-08-19T13:02:32;28.50;66.00
16118;DHT22;8163;50.118;5.342;2022-08-19T13:05:02;28.50;66.40
16118;DHT22;8163;50.118;5.342;2022-08-19T13:07:29;28.60;66.60
16118;DHT22;8163;50.118;5.342;2022-08-19T13:09:56;28.70;66.90
16118;DHT22;8163;50.118;5.342;2022-08-19T13:12:23;28.70;66.60
16118;DHT22;8163;50.118;5.342;2022-08-19T13:14:52;28.50;66.40
16118;DHT22;8163;50.118;5.342;2022-08-19T13:17:20;28.60;66.60
16118;DHT22;8163;50.118;5.342;2022-08-19T13:19:48;28.70;67.30
16118;DHT22;8163;50.118;5.342;2022-08-19T13:22:17;28.50;67.40
16118;DHT22;8163;50.118;5.342;2022-08-19T13:24:46;28.30;67.30
16118;DHT22;8163;50.118;5.342;2022-08-19T13:27:20;27.70;67.10
16118;DHT22;8163;50.118;5.342;2022-08-19T13:29:49;27.30;67.50
16118;DHT22;8163;50.118;5.342;2022-08-19T13:32:33;26.90;67.80
16118;DHT22;8163;50.118;5.342;2022-08-19T13:35:18;26.90;68.60
16118;DHT22;8163;50.118;5.342;2022-08-19T13:37:49;27.00;69.40
16118;DHT22;8163;50.118;5.342;2022-08-19T13:40:22;27.10;70.00
16118;DHT22;8163;50.118;5.342;2022-08-19T13:42:54;27.10;70.20
16118;DHT22;8163;50.118;5.342;2022-08-19T13:45:25;27.00;70.20
16118;DHT22;8163;50.118;5.342;2022-08-19T13:47:56;27.00;70.40
16118;DHT22;8163;50.118;5.342;2022-08-19T13:50:28;27.10;70.80
16118;DHT22;8163;50.118;5.342;2022-08-19T13:53:02;27.20;70.70
16118;DHT22;8163;50.118;5.342;2022-08-19T13:55:32;27.30;70.70
16118;DHT22;8163;50.118;5.342;2022-08-19T13:58:01;27.30;70.50
16118;DHT22;8163;50.118;5.342;2022-08-19T14:00:35;27.20;70.40
16118;DHT22;8163;50.118;5.342;2022-08-19T14:03:05;27.20;70.40
16118;DHT22;8163;50.118;5.342;2022-08-19T14:05:34;27.10;70.70
16118;DHT22;8163;50.118;5.342;2022-08-19T14:08:04;27.10;70.80
16118;DHT22;8163;50.118;5.342;2022-08-19T14:10:32;27.10;71.00
16118;DHT22;8163;50.118;5.342;2022-08-19T14:13:02;27.10;71.00
16118;DHT22;8163;50.118;5.342;2022-08-19T14:15:31;27.00;70.90
16118;DHT22;8163;50.118;5.342;2022-08-19T14:18:00;26.90;70.80
16118;DHT22;8163;50.118;5.342;2022-08-19T14:20:27;26.80;70.70
16118;DHT22;8163;50.118;5.342;2022-08-19T14:22:56;26.80;70.70
16118;DHT22;8163;50.118;5.342;2022-08-19T14:25:29;26.70;71.20
16118;DHT22;8163;50.118;5.342;2022-08-19T14:27:57;26.70;71.70
16118;DHT22;8163;50.118;5.342;2022-08-19T14:30:27;26.60;71.60
16118;DHT22;8163;50.118;5.342;2022-08-19T14:32:56;26.50;71.70
16118;DHT22;8163;50.118;5.342;2022-08-19T14:35:24;26.50;71.60
16118;DHT22;8163;50.118;5.342;2022-08-19T14:41:13;26.80;72.00
16118;DHT22;8163;50.118;5.342;2022-08-19T14:43:45;26.90;71.90
16118;DHT22;8163;50.118;5.342;2022-08-19T14:46:15;26.80;71.20
16118;DHT22;8163;50.118;5.342;2022-08-19T14:48:43;26.70;71.40
16118;DHT22;8163;50.118;5.342;2022-08-19T14:51:13;26.60;71.60
16118;DHT22;8163;50.118;5.342;2022-08-19T14:53:44;26.60;71.70
16118;DHT22;8163;50.118;5.342;2022-08-19T14:56:18;26.50;72.00
16118;DHT22;8163;50.118;5.342;2022-08-19T14:58:48;26.40;72.10
16118;DHT22;8163;50.118;5.342;2022-08-19T15:01:21;26.40;72.30
16118;DHT22;8163;50.118;5.342;2022-08-19T15:03:51;26.50;72.40
16118;DHT22;8163;50.118;5.342;2022-08-19T15:06:23;26.40;72.30
16118;DHT22;8163;50.118;5.342;2022-08-19T15:08:52;26.30;72.30
16118;DHT22;8163;50.118;5.342;2022-08-19T15:11:23;26.10;72.40
16118;DHT22;8163;50.118;5.342;2022-08-19T15:13:52;26.00;72.70
16118;DHT22;8163;50.118;5.342;2022-08-19T15:16:19;25.90;72.80
16118;DHT22;8163;50.118;5.342;2022-08-19T15:18:50;25.70;72.90
16118;DHT22;8163;50.118;5.342;2022-08-19T15:21:18;25.60;73.20
16118;DHT22;8163;50.118;5.342;2022-08-19T15:23:45;25.50;73.40
16118;DHT22;8163;50.118;5.342;2022-08-19T15:26:13;25.30;73.30
16118;DHT22;8163;50.118;5.342;2022-08-19T15:28:42;25.10;73.70
16118;DHT22;8163;50.118;5.342;2022-08-19T15:31:10;25.10;74.10
16118;DHT22;8163;50.118;5.342;2022-08-19T15:33:39;25.20;74.30
16118;DHT22;8163;50.118;5.342;2022-08-19T15:36:10;25.30;74.70
16118;DHT22;8163;50.118;5.342;2022-08-19T15:38:38;25.40;74.60
16118;DHT22;8163;50.118;5.342;2022-08-19T15:41:16;25.50;74.80
16118;DHT22;8163;50.118;5.342;2022-08-19T15:43:53;25.50;74.80
16118;DHT22;8163;50.118;5.342;2022-08-19T15:46:22;25.40;74.70
16118;DHT22;8163;50.118;5.342;2022-08-19T15:48:51;25.40;74.80
16118;DHT22;8163;50.118;5.342;2022-08-19T15:51:18;25.40;74.80
16118;DHT22;8163;50.118;5.342;2022-08-19T15:53:46;25.40;74.90
16118;DHT22;8163;50.118;5.342;2022-08-19T15:56:14;25.40;74.70
16118;DHT22;8163;50.118;5.342;2022-08-19T15:58:41;25.40;74.80
16118;DHT22;8163;50.118;5.342;2022-08-19T16:01:28;25.30;75.20
16118;DHT22;8163;50.118;5.342;2022-08-19T16:04:09;25.30;75.10
16118;DHT22;8163;50.118;5.342;2022-08-19T16:06:55;25.20;75.10
16118;DHT22;8163;50.118;5.342;2022-08-19T16:09:24;25.00;74.90
16118;DHT22;8163;50.118;5.342;2022-08-19T16:11:54;24.90;75.00
16118;DHT22;8163;50.118;5.342;2022-08-19T16:14:22;24.80;75.10
16118;DHT22;8163;50.118;5.342;2022-08-19T16:16:51;24.70;75.40
16118;DHT22;8163;50.118;5.342;2022-08-19T16:19:19;24.60;75.50
16118;DHT22;8163;50.118;5.342;2022-08-19T16:21:47;24.60;75.80
16118;DHT22;8163;50.118;5.342;2022-08-19T16:24:17;24.40;75.90
16118;DHT22;8163;50.118;5.342;2022-08-19T16:26:44;24.40;76.10
16118;DHT22;8163;50.118;5.342;2022-08-19T16:29:12;24.30;76.20
16118;DHT22;8163;50.118;5.342;2022-08-19T16:31:41;24.20;76.40
16118;DHT22;8163;50.118;5.342;2022-08-19T16:34:10;24.20;76.60
16118;DHT22;8163;50.118;5.342;2022-08-19T16:36:38;24.10;76.70
16118;DHT22;8163;50.118;5.342;2022-08-19T16:39:07;24.10;77.10
16118;DHT22;8163;50.118;5.342;2022-08-19T16:41:34;24.10;77.40
16118;DHT22;8163;50.118;5.342;2022-08-19T16:44:03;24.10;77.50
16118;DHT22;8163;50.118;5.342;2022-08-19T16:46:30;24.10;77.70